createdAt,value
2019-02-02T00:01:57.594Z,51.10
2019-02-02T00:04:25.259Z,42.63
2019-02-02T00:06:52.793Z,47.53
2019-02-02T00:09:21.195Z,48.90
2019-02-02T00:11:48.683Z,49.17
2019-02-02T00:14:16.303Z,44.20
2019-02-02T00:16:43.866Z,44.17
2019-02-02T00:19:18.324Z,48.07
2019-02-02T00:21:46.025Z,46.07
2019-02-02T00:24:13.724Z,50.67
2019-02-02T00:26:41.390Z,40.53
2019-02-02T00:29:09.303Z,48.47
2019-02-02T00:31:36.971Z,54.37
2019-02-02T00:34:04.632Z,48.93
2019-02-02T00:36:32.284Z,42.80
2019-02-02T00:39:00.005Z,46.53
2019-02-02T00:41:29.715Z,49.17
2019-02-02T00:43:57.427Z,47.43
2019-02-02T00:46:25.080Z,47.60
2019-02-02T00:48:52.773Z,53.73
2019-02-02T00:51:20.662Z,48.90
2019-02-02T00:53:48.525Z,54.80
2019-02-02T00:56:16.497Z,39.53
2019-02-02T00:58:44.419Z,52.83
2019-02-02T01:01:12.390Z,47.03
2019-02-02T01:03:40.060Z,47.60
2019-02-02T01:06:07.814Z,41.23
2019-02-02T01:08:35.505Z,47.77
2019-02-02T01:11:03.578Z,48.77
2019-02-02T01:13:31.186Z,39.90
2019-02-02T01:15:58.822Z,44.93
2019-02-02T01:18:26.461Z,43.57
2019-02-02T01:20:54.155Z,50.07
2019-02-02T01:23:22.002Z,48.13
2019-02-02T01:25:49.628Z,49.87
2019-02-02T01:28:17.232Z,40.20
2019-02-02T01:30:45.139Z,46.80
2019-02-02T01:33:12.749Z,44.40
2019-02-02T01:35:41.375Z,42.27
2019-02-02T01:38:08.940Z,41.47
2019-02-02T01:40:36.558Z,44.47
2019-02-02T01:43:04.457Z,37.83
2019-02-02T01:45:32.085Z,44.90
2019-02-02T01:47:59.717Z,46.80
2019-02-02T01:50:27.342Z,46.60
2019-02-02T01:52:54.942Z,37.87
2019-02-02T01:55:23.871Z,43.57
2019-02-02T01:57:51.452Z,41.77
2019-02-02T02:00:20.639Z,44.33
2019-02-02T02:02:49.354Z,44.53
2019-02-02T02:05:17.395Z,43.27
2019-02-02T02:07:45.289Z,41.90
2019-02-02T02:10:14.227Z,45.00
2019-02-02T02:12:41.880Z,43.83
2019-02-02T02:15:10.892Z,43.93
2019-02-02T02:20:09.631Z,42.20
2019-02-02T02:22:41.146Z,38.10
2019-02-02T02:25:09.766Z,45.63
2019-02-02T02:27:37.790Z,45.37
2019-02-02T02:30:06.259Z,46.07
2019-02-02T02:32:34.508Z,46.73
2019-02-02T02:35:02.610Z,40.70
2019-02-02T02:37:30.563Z,44.10
2019-02-02T02:39:58.490Z,33.57
2019-02-02T02:42:26.498Z,45.60
2019-02-02T02:44:54.179Z,44.10
2019-02-02T02:47:21.908Z,39.87
2019-02-02T02:49:49.605Z,45.23
2019-02-02T02:52:17.804Z,46.70
2019-02-02T02:54:45.511Z,48.63
2019-02-02T02:57:13.350Z,41.70
2019-02-02T02:59:40.973Z,49.03
2019-02-02T03:02:08.549Z,42.30
2019-02-02T03:07:44.067Z,46.97
2019-02-02T03:10:12.901Z,45.00
2019-02-02T03:12:40.574Z,47.67
2019-02-02T03:15:09.095Z,43.07
2019-02-02T03:17:36.793Z,45.03
2019-02-02T03:20:04.785Z,43.73
2019-02-02T03:22:32.415Z,36.87
2019-02-02T03:25:00.121Z,48.10
2019-02-02T03:27:28.013Z,38.00
2019-02-02T03:29:55.738Z,37.70
2019-02-02T03:32:23.344Z,39.23
2019-02-02T03:34:51.015Z,43.23
2019-02-02T03:37:18.955Z,39.97
2019-02-02T03:39:46.518Z,44.63
2019-02-02T03:42:14.151Z,44.80
2019-02-02T03:44:41.929Z,36.10
2019-02-02T03:47:09.546Z,39.67
2019-02-02T03:49:37.239Z,42.30
2019-02-02T03:52:04.936Z,30.47
2019-02-02T03:54:32.584Z,32.57
2019-02-02T03:57:00.220Z,40.80
2019-02-02T03:59:27.989Z,40.23
2019-02-02T04:01:56.167Z,39.87
2019-02-02T04:04:24.070Z,37.07
2019-02-02T04:06:51.719Z,27.33
2019-02-02T04:09:19.369Z,39.17
2019-02-02T04:11:47.199Z,32.90
2019-02-02T04:14:14.817Z,36.90
2019-02-02T04:16:43.676Z,38.13
2019-02-02T04:19:11.282Z,30.83
2019-02-02T04:21:38.871Z,37.63
2019-02-02T04:24:06.523Z,36.07
2019-02-02T04:26:34.145Z,33.40
2019-02-02T04:29:01.746Z,36.53
2019-02-02T04:31:29.336Z,30.33
2019-02-02T04:33:56.893Z,34.27
2019-02-02T04:36:24.515Z,30.20
2019-02-02T04:38:52.076Z,38.30
2019-02-02T04:44:04.314Z,29.93
2019-02-02T04:49:16.501Z,37.17
2019-02-02T04:51:45.279Z,33.47
2019-02-02T04:54:12.955Z,39.90
2019-02-02T04:56:40.645Z,38.13
2019-02-02T04:59:08.263Z,39.57
2019-02-02T05:01:36.019Z,42.03
2019-02-02T05:04:03.720Z,36.33
2019-02-02T05:06:31.350Z,35.10
2019-02-02T05:08:58.982Z,38.40
2019-02-02T05:11:26.735Z,26.73
2019-02-02T05:13:54.370Z,33.57
2019-02-02T05:16:22.090Z,29.00
2019-02-02T05:18:49.732Z,28.67
2019-02-02T05:21:17.386Z,36.30
2019-02-02T05:23:45.434Z,28.27
2019-02-02T05:26:12.974Z,25.17
2019-02-02T05:28:40.942Z,33.47
2019-02-02T05:31:08.876Z,26.60
2019-02-02T05:33:36.530Z,29.67
2019-02-02T05:36:04.176Z,35.07
2019-02-02T05:38:31.937Z,33.20
2019-02-02T05:40:59.560Z,32.93
2019-02-02T05:43:27.596Z,27.17
2019-02-02T05:45:55.287Z,23.83
2019-02-02T05:48:22.911Z,28.50
2019-02-02T05:50:50.655Z,32.30
2019-02-02T05:53:18.404Z,31.43
2019-02-02T05:58:26.672Z,22.30
2019-02-02T06:00:55.485Z,30.33
2019-02-02T06:03:23.061Z,29.90
2019-02-02T06:05:50.674Z,29.90
2019-02-02T06:08:18.523Z,29.70
2019-02-02T06:10:46.158Z,28.93
2019-02-02T06:13:14.042Z,20.43
2019-02-02T06:15:41.708Z,21.53
2019-02-02T06:18:09.330Z,25.67
2019-02-02T06:20:37.021Z,17.67
2019-02-02T06:23:04.652Z,19.33
2019-02-02T06:25:32.262Z,14.57
2019-02-02T06:28:00.134Z,20.67
2019-02-02T06:30:28.354Z,18.03
2019-02-02T06:32:56.002Z,18.73
2019-02-02T06:35:23.653Z,18.57
2019-02-02T06:37:51.235Z,20.17
2019-02-02T06:40:19.002Z,20.17
2019-02-02T06:42:46.575Z,20.13
2019-02-02T06:45:15.850Z,16.17
2019-02-02T06:47:44.007Z,17.23
2019-02-02T06:50:13.328Z,18.73
2019-02-02T06:52:41.064Z,18.33
2019-02-02T06:55:09.142Z,15.57
2019-02-02T06:57:37.038Z,16.87
2019-02-02T07:00:15.820Z,17.07
2019-02-02T07:02:37.527Z,12.73
2019-02-02T07:08:04.525Z,17.77
2019-02-02T07:10:32.220Z,21.20
2019-02-02T07:12:59.808Z,16.13
2019-02-02T07:15:28.483Z,11.47
2019-02-02T07:17:56.088Z,16.70
2019-02-02T07:20:24.092Z,20.37
2019-02-02T07:22:51.706Z,15.80
2019-02-02T07:25:19.711Z,11.20
2019-02-02T07:27:47.356Z,10.30
2019-02-02T07:30:27.606Z,14.73
2019-02-02T07:32:46.846Z,11.30
2019-02-02T07:35:14.486Z,13.70
2019-02-02T07:37:42.155Z,13.93
2019-02-02T07:40:10.641Z,11.27
2019-02-02T07:42:38.579Z,21.52
2019-02-02T07:45:07.807Z,14.10
2019-02-02T07:47:35.428Z,11.90
2019-02-02T07:50:03.369Z,15.87
2019-02-02T07:52:30.998Z,14.47
2019-02-02T07:54:58.640Z,12.97
2019-02-02T07:57:26.260Z,12.87
2019-02-02T07:59:54.138Z,9.97
2019-02-02T08:02:21.757Z,9.07
2019-02-02T08:04:49.921Z,12.47
2019-02-02T08:07:17.845Z,14.03
2019-02-02T08:09:45.722Z,11.93
2019-02-02T08:12:13.318Z,16.07
2019-02-02T08:14:41.193Z,13.43
2019-02-02T08:17:08.803Z,15.37
2019-02-02T08:19:36.404Z,14.87
2019-02-02T08:22:04.026Z,12.03
2019-02-02T08:24:31.659Z,9.97
2019-02-02T08:26:59.579Z,9.33
2019-02-02T08:32:22.378Z,8.33
2019-02-02T08:34:50.135Z,9.13
2019-02-02T08:37:17.820Z,9.50
2019-02-02T08:39:49.477Z,9.07
2019-02-02T08:45:03.779Z,9.13
2019-02-02T08:50:28.996Z,9.37
2019-02-02T08:52:56.662Z,9.03
2019-02-02T08:55:24.320Z,9.10
2019-02-02T09:00:31.669Z,8.40
2019-02-02T09:05:50.915Z,9.00
2019-02-02T09:11:17.926Z,11.40
2019-02-02T09:13:45.597Z,14.07
2019-02-02T09:16:13.543Z,10.47
2019-02-02T09:18:41.134Z,12.60
2019-02-02T09:21:11.072Z,16.63
2019-02-02T09:23:38.720Z,14.37
2019-02-02T09:26:06.395Z,16.27
2019-02-02T09:28:34.051Z,14.97
2019-02-02T09:31:02.816Z,14.97
2019-02-02T09:33:31.123Z,17.13
2019-02-02T09:35:58.912Z,19.83
2019-02-02T09:38:27.536Z,12.20
2019-02-02T09:40:55.527Z,15.87
2019-02-02T09:43:23.218Z,18.03
2019-02-02T09:45:50.937Z,15.57
2019-02-02T09:48:18.857Z,12.23
2019-02-02T09:50:46.507Z,14.47
2019-02-02T09:53:14.604Z,12.23
2019-02-02T09:55:42.225Z,14.00
2019-02-02T09:58:10.338Z,9.27
2019-02-02T10:00:38.507Z,13.70
2019-02-02T10:03:06.439Z,16.80
2019-02-02T10:05:34.225Z,11.00
2019-02-02T10:08:01.974Z,12.93
2019-02-02T10:10:30.664Z,15.93
2019-02-02T10:12:58.351Z,12.97
2019-02-02T10:15:26.083Z,14.90
2019-02-02T10:17:54.024Z,15.97
2019-02-02T10:20:22.877Z,12.73
2019-02-02T10:22:51.308Z,14.37
2019-02-02T10:25:19.950Z,15.60
2019-02-02T10:27:47.875Z,9.43
2019-02-02T10:30:17.302Z,13.03
2019-02-02T10:32:45.093Z,9.80
2019-02-02T10:35:12.955Z,13.37
2019-02-02T10:37:40.843Z,11.97
2019-02-02T10:40:08.767Z,11.97
2019-02-02T10:42:36.400Z,9.10
2019-02-02T10:45:04.679Z,8.77
2019-02-02T10:47:33.618Z,10.30
2019-02-02T10:50:01.282Z,15.07
2019-02-02T10:52:28.975Z,14.80
2019-02-02T10:54:56.879Z,12.37
2019-02-02T10:57:24.479Z,8.53
2019-02-02T10:59:52.388Z,14.40
2019-02-02T11:10:42.176Z,13.40
2019-02-02T11:13:09.894Z,13.33
2019-02-02T11:15:48.753Z,13.00
2019-02-02T11:18:16.501Z,22.63
2019-02-02T11:20:44.053Z,11.67
2019-02-02T11:23:11.932Z,11.60
2019-02-02T11:25:39.791Z,11.03
2019-02-02T11:28:07.605Z,12.50
2019-02-02T11:30:35.772Z,8.00
2019-02-02T11:33:03.411Z,12.13
2019-02-02T11:35:31.033Z,10.13
2019-02-02T11:37:58.766Z,7.73
2019-02-02T11:40:27.561Z,10.43
2019-02-02T11:42:55.755Z,10.67
2019-02-02T11:45:25.403Z,10.63
2019-02-02T11:47:53.215Z,10.90
2019-02-02T11:50:21.336Z,10.87
2019-02-02T11:52:49.599Z,11.27
2019-02-02T11:55:17.503Z,10.70
2019-02-02T11:57:45.267Z,8.43
2019-02-02T12:00:18.068Z,9.97
2019-02-02T12:02:49.471Z,11.83
2019-02-02T12:05:15.221Z,9.47
2019-02-02T12:07:43.167Z,8.67
2019-02-02T12:10:11.842Z,9.50
2019-02-02T12:12:42.120Z,6.80
2019-02-02T12:15:09.876Z,4.90
2019-02-02T12:17:37.484Z,5.57
2019-02-02T12:20:05.989Z,7.00
2019-02-02T12:22:33.651Z,8.80
2019-02-02T12:25:02.013Z,8.37
2019-02-02T12:27:30.150Z,5.30
2019-02-02T12:29:58.210Z,4.60
2019-02-02T12:32:27.036Z,4.17
2019-02-02T12:37:55.930Z,2.67
2019-02-02T12:40:23.709Z,9.70
2019-02-02T12:42:51.504Z,7.77
2019-02-02T12:45:20.491Z,4.10
2019-02-02T12:47:48.204Z,4.60
2019-02-02T12:50:15.836Z,5.20
2019-02-02T12:52:43.518Z,5.53
2019-02-02T12:55:11.155Z,6.17
2019-02-02T12:57:39.239Z,4.67
2019-02-02T13:00:09.348Z,4.47
2019-02-02T13:02:38.478Z,3.80
2019-02-02T13:05:06.498Z,4.30
2019-02-02T13:07:34.456Z,5.80
2019-02-02T13:10:02.150Z,5.67
2019-02-02T13:12:29.958Z,3.30
2019-02-02T13:14:58.296Z,5.20
2019-02-02T13:17:26.065Z,4.13
2019-02-02T13:19:53.726Z,5.67
2019-02-02T13:22:21.404Z,6.03
2019-02-02T13:24:49.062Z,5.03
2019-02-02T13:27:16.727Z,6.63
2019-02-02T13:29:44.335Z,6.57
2019-02-02T13:32:11.998Z,5.80
2019-02-02T13:34:39.913Z,5.93
2019-02-02T13:37:07.840Z,4.23
2019-02-02T13:39:35.518Z,3.63
2019-02-02T13:42:03.245Z,8.00
2019-02-02T13:44:30.887Z,5.67
2019-02-02T13:46:58.621Z,4.90
2019-02-02T13:52:16.136Z,4.17
2019-02-02T13:54:43.772Z,8.47
2019-02-02T13:57:11.386Z,8.97
2019-02-02T13:59:39.008Z,7.83
2019-02-02T14:02:06.605Z,8.33
2019-02-02T14:04:34.512Z,7.80
2019-02-02T14:07:02.361Z,6.30
2019-02-02T14:09:30.298Z,6.60
2019-02-02T14:11:57.919Z,6.73
2019-02-02T14:14:25.537Z,7.13
2019-02-02T14:16:53.132Z,6.87
2019-02-02T14:19:21.333Z,3.97
2019-02-02T14:21:48.884Z,5.73
2019-02-02T14:24:16.532Z,5.13
2019-02-02T14:26:44.161Z,3.00
2019-02-02T14:29:11.893Z,5.10
2019-02-02T14:31:39.849Z,4.90
2019-02-02T14:34:07.494Z,5.17
2019-02-02T14:36:35.113Z,3.30
2019-02-02T14:39:04.819Z,4.27
2019-02-02T14:41:32.474Z,5.83
2019-02-02T14:44:00.072Z,5.73
2019-02-02T14:46:28.766Z,2.97
2019-02-02T14:48:56.374Z,5.60
2019-02-02T14:51:24.028Z,3.87
2019-02-02T14:53:53.928Z,3.47
2019-02-02T14:59:03.640Z,5.00
2019-02-02T15:01:31.884Z,4.53
2019-02-02T15:03:59.511Z,7.50
2019-02-02T15:09:26.076Z,6.87
2019-02-02T15:14:42.474Z,7.87
2019-02-02T15:17:10.120Z,8.33
2019-02-02T15:19:37.801Z,8.80
2019-02-02T15:22:05.521Z,8.00
2019-02-02T15:24:33.147Z,9.97
2019-02-02T15:27:00.747Z,8.80
2019-02-02T15:29:28.407Z,8.50
2019-02-02T15:31:56.000Z,10.20
2019-02-02T15:34:23.642Z,10.57
2019-02-02T15:36:52.541Z,11.60
2019-02-02T15:39:20.164Z,13.03
2019-02-02T15:41:52.980Z,12.80
2019-02-02T15:44:17.876Z,12.77
2019-02-02T15:46:49.248Z,13.73
2019-02-02T15:57:42.896Z,16.67
2019-02-02T16:00:18.038Z,15.97
2019-02-02T16:02:45.659Z,15.80
2019-02-02T16:05:13.588Z,16.27
2019-02-02T16:10:34.676Z,16.93
2019-02-02T16:13:02.647Z,23.67
2019-02-02T16:15:30.293Z,25.10
2019-02-02T16:17:59.244Z,21.53
2019-02-02T16:20:28.156Z,19.57
2019-02-02T16:22:55.977Z,20.67
2019-02-02T16:25:23.681Z,35.93
2019-02-02T16:27:51.325Z,21.97
2019-02-02T16:30:20.234Z,25.30
2019-02-02T16:32:47.931Z,21.67
2019-02-02T16:35:15.647Z,25.70
2019-02-02T16:37:43.292Z,24.40
2019-02-02T16:40:12.362Z,23.57
2019-02-02T16:42:39.965Z,24.53
2019-02-02T16:45:08.892Z,21.33
2019-02-02T16:47:37.786Z,24.93
2019-02-02T16:50:06.437Z,23.93
2019-02-02T16:52:34.404Z,24.00
2019-02-02T16:55:02.075Z,21.57
2019-02-02T16:57:29.995Z,21.87
2019-02-02T16:59:57.657Z,17.47
2019-02-02T17:02:25.517Z,9.93
2019-02-02T17:04:53.219Z,13.27
2019-02-02T17:07:20.964Z,10.60
2019-02-02T17:09:48.664Z,9.77
2019-02-02T17:12:16.356Z,9.10
2019-02-02T17:14:43.992Z,11.17
2019-02-02T17:17:11.585Z,6.53
2019-02-02T17:19:39.270Z,10.47
2019-02-02T17:22:06.825Z,10.40
2019-02-02T17:24:34.471Z,9.50
2019-02-02T17:27:02.042Z,10.13
2019-02-02T17:29:29.930Z,11.23
2019-02-02T17:31:57.599Z,24.77
2019-02-02T17:37:37.631Z,11.77
2019-02-02T17:40:08.134Z,11.30
2019-02-02T17:42:35.760Z,11.50
2019-02-02T17:45:04.070Z,11.67
2019-02-02T17:47:32.968Z,10.73
2019-02-02T17:50:13.454Z,12.73
2019-02-02T17:55:25.763Z,14.97
2019-02-02T17:57:53.749Z,16.03
2019-02-02T18:00:33.225Z,15.03
2019-02-02T18:03:01.180Z,16.97
2019-02-02T18:05:28.858Z,13.53
2019-02-02T18:07:56.714Z,16.03
2019-02-02T18:10:24.360Z,17.03
2019-02-02T18:12:52.221Z,16.47
2019-02-02T18:15:19.866Z,20.20
2019-02-02T18:17:47.449Z,36.27
2019-02-02T18:20:15.220Z,20.63
2019-02-02T18:22:42.848Z,18.37
2019-02-02T18:25:10.987Z,14.13
2019-02-02T18:27:38.613Z,14.73
2019-02-02T18:30:08.304Z,16.23
2019-02-02T18:32:35.905Z,17.47
2019-02-02T18:35:04.354Z,22.47
2019-02-02T18:37:31.984Z,16.53
2019-02-02T18:40:00.601Z,19.47
2019-02-02T18:42:28.260Z,20.97
2019-02-02T18:44:56.259Z,15.83
2019-02-02T18:47:25.903Z,19.20
2019-02-02T18:49:54.396Z,18.70
2019-02-02T18:52:22.528Z,13.77
2019-02-02T18:54:50.617Z,18.23
2019-02-02T18:57:19.112Z,21.43
2019-02-02T18:59:47.815Z,14.00
2019-02-02T19:02:15.855Z,14.40
2019-02-02T19:04:43.867Z,16.07
2019-02-02T19:07:11.896Z,14.50
2019-02-02T19:10:04.850Z,17.63
2019-02-02T19:13:03.991Z,19.60
2019-02-02T19:15:38.757Z,18.43
2019-02-02T19:30:53.751Z,12.40
2019-02-02T19:33:21.350Z,12.97
2019-02-02T19:35:48.944Z,8.37
2019-02-02T19:38:16.524Z,8.77
2019-02-02T19:40:44.428Z,6.83
2019-02-02T19:43:12.008Z,7.60
2019-02-02T19:45:39.645Z,7.13
2019-02-02T19:48:08.262Z,7.40
2019-02-02T19:50:35.939Z,7.97
2019-02-02T19:53:04.317Z,6.70
2019-02-02T19:55:31.919Z,8.20
2019-02-02T19:57:59.540Z,8.67
2019-02-02T20:00:28.062Z,9.77
2019-02-02T20:02:55.725Z,12.10
2019-02-02T20:05:28.610Z,12.33
2019-02-02T20:11:10.824Z,13.70
2019-02-02T20:16:42.532Z,15.67
2019-02-02T20:21:57.066Z,16.40
2019-02-02T20:24:24.828Z,15.90
2019-02-02T20:26:52.533Z,19.63
2019-02-02T20:29:20.199Z,21.17
2019-02-02T20:31:47.854Z,17.33
2019-02-02T20:34:15.790Z,21.93
2019-02-02T20:36:43.437Z,21.70
2019-02-02T20:39:11.377Z,20.47
2019-02-02T20:41:39.030Z,18.90
2019-02-02T20:44:06.650Z,15.63
2019-02-02T20:46:34.296Z,12.53
2019-02-02T20:49:01.922Z,16.27
2019-02-02T20:51:29.621Z,16.70
2019-02-02T20:53:57.585Z,19.13
2019-02-02T20:56:25.208Z,16.67
2019-02-02T20:58:52.847Z,15.93
2019-02-02T21:01:20.533Z,17.57
2019-02-02T21:09:30.646Z,16.93
2019-02-02T21:11:58.316Z,17.37
2019-02-02T21:14:25.925Z,15.37
2019-02-02T21:16:53.609Z,14.00
2019-02-02T21:19:21.222Z,15.40
2019-02-02T21:21:49.141Z,15.87
2019-02-02T21:24:16.748Z,16.10
2019-02-02T21:26:44.599Z,16.20
2019-02-02T21:29:12.271Z,15.03
2019-02-02T21:31:41.138Z,15.43
2019-02-02T21:34:08.769Z,16.87
2019-02-02T21:42:15.281Z,33.13
2019-02-02T21:44:43.552Z,33.03
2019-02-02T21:47:11.221Z,21.43
2019-02-02T21:49:39.400Z,19.80
2019-02-02T21:52:07.078Z,20.87
2019-02-02T21:54:34.996Z,20.90
2019-02-02T21:57:02.899Z,22.83
2019-02-02T21:59:30.639Z,20.10
2019-02-02T22:01:58.293Z,19.37
2019-02-02T22:04:26.707Z,20.57
2019-02-02T22:06:54.367Z,20.07
2019-02-02T22:09:21.946Z,20.57
2019-02-02T22:11:49.937Z,20.37
2019-02-02T22:14:17.530Z,22.27
2019-02-02T22:16:46.172Z,21.57
2019-02-02T22:19:13.907Z,22.30
2019-02-02T22:21:41.554Z,21.87
2019-02-02T22:24:09.223Z,19.70
2019-02-02T22:26:37.010Z,18.57
2019-02-02T22:29:05.100Z,20.40
2019-02-02T22:31:32.902Z,19.00
2019-02-02T22:34:00.625Z,21.77
2019-02-02T22:36:28.342Z,19.13
2019-02-02T22:38:56.000Z,20.67
2019-02-02T22:41:23.781Z,22.33
2019-02-02T22:43:51.602Z,25.33
2019-02-02T22:46:22.528Z,31.17
2019-02-02T22:48:50.486Z,25.90
2019-02-02T22:51:18.295Z,24.70
2019-02-02T22:53:45.933Z,23.93
2019-02-02T22:56:13.607Z,22.40
2019-02-02T22:58:41.581Z,20.27
2019-02-02T23:01:12.194Z,19.70
2019-02-02T23:04:02.172Z,22.37
2019-02-02T23:06:42.379Z,25.03
2019-02-02T23:09:38.626Z,23.47
2019-02-02T23:12:31.930Z,22.60
2019-02-02T23:15:04.874Z,23.57
2019-02-02T23:17:32.947Z,22.60
2019-02-02T23:20:01.798Z,20.00
2019-02-02T23:22:29.812Z,23.23
2019-02-02T23:24:57.715Z,13.40
2019-02-02T23:27:25.373Z,10.23
2019-02-02T23:29:52.989Z,10.30
2019-02-02T23:32:20.871Z,5.97
2019-02-02T23:34:48.731Z,5.63
2019-02-02T23:37:16.320Z,6.80
2019-02-02T23:39:43.978Z,3.90
2019-02-02T23:42:11.839Z,6.80
2019-02-02T23:44:39.463Z,6.57
2019-02-02T23:47:07.067Z,5.03
2019-02-02T23:49:35.033Z,6.53
2019-02-02T23:52:03.056Z,6.97
2019-02-02T23:54:30.651Z,6.23
2019-02-02T23:56:58.255Z,6.70
2019-02-02T23:59:47.302Z,6.87
